createdAt,value
2023-10-10T00:02:20.446Z,8.56
2023-10-10T00:04:49.357Z,8.55
2023-10-10T00:07:18.204Z,8.54
2023-10-10T00:09:46.864Z,8.52
2023-10-10T00:12:20.336Z,8.52
2023-10-10T00:14:52.102Z,8.51
2023-10-10T00:17:22.240Z,8.52
2023-10-10T00:20:16.316Z,8.54
2023-10-10T00:22:48.104Z,8.57
2023-10-10T00:25:17.970Z,8.61
2023-10-10T00:27:47.658Z,8.65
2023-10-10T00:30:15.879Z,8.68
2023-10-10T00:32:46.398Z,8.70
2023-10-10T00:35:14.484Z,8.72
2023-10-10T00:37:44.986Z,8.74
2023-10-10T00:40:16.619Z,8.76
2023-10-10T00:42:44.448Z,8.80
2023-10-10T00:45:15.118Z,8.86
2023-10-10T00:47:54.086Z,8.90
2023-10-10T00:50:26.534Z,8.93
2023-10-10T00:52:55.136Z,8.94
2023-10-10T00:55:26.900Z,8.96
2023-10-10T00:58:00.258Z,8.98
2023-10-10T01:00:32.843Z,9.01
2023-10-10T01:03:20.301Z,9.02
2023-10-10T01:05:55.248Z,9.04
2023-10-10T01:08:28.132Z,9.04
2023-10-10T01:11:03.471Z,8.99
2023-10-10T01:13:32.171Z,8.96
2023-10-10T01:16:05.417Z,8.95
2023-10-10T01:18:40.672Z,8.93
2023-10-10T01:21:10.445Z,8.89
2023-10-10T01:23:39.097Z,8.83
2023-10-10T01:26:07.957Z,8.79
2023-10-10T01:28:36.204Z,8.77
2023-10-10T01:31:07.536Z,8.74
2023-10-10T01:33:43.690Z,8.72
2023-10-10T01:36:20.882Z,8.70
2023-10-10T01:39:01.381Z,8.68
2023-10-10T01:41:42.657Z,8.66
2023-10-10T01:44:14.431Z,8.64
2023-10-10T01:46:43.138Z,8.60
2023-10-10T01:49:22.066Z,8.59
2023-10-10T01:51:57.393Z,8.58
2023-10-10T01:54:36.042Z,8.57
2023-10-10T01:57:09.328Z,8.56
2023-10-10T01:59:39.684Z,8.56
2023-10-10T02:02:15.493Z,8.56
2023-10-10T02:04:45.772Z,8.56
2023-10-10T02:07:32.978Z,8.56
2023-10-10T02:10:14.803Z,8.58
2023-10-10T02:12:46.566Z,8.58
2023-10-10T02:15:19.403Z,8.58
2023-10-10T02:17:57.530Z,8.55
2023-10-10T02:20:28.708Z,8.53
2023-10-10T02:23:06.058Z,8.51
2023-10-10T02:25:37.210Z,8.51
2023-10-10T02:28:21.929Z,8.50
2023-10-10T02:30:51.193Z,8.50
2023-10-10T02:33:25.349Z,8.48
2023-10-10T02:36:00.076Z,8.47
2023-10-10T02:38:36.256Z,8.45
2023-10-10T02:41:23.701Z,8.45
2023-10-10T02:44:02.243Z,8.44
2023-10-10T02:46:37.799Z,8.43
2023-10-10T02:49:28.083Z,8.43
2023-10-10T02:51:58.705Z,8.44
2023-10-10T02:54:27.888Z,8.44
2023-10-10T02:56:59.258Z,8.42
2023-10-10T02:59:39.206Z,8.41
2023-10-10T03:02:20.812Z,8.38
2023-10-10T03:05:19.074Z,8.36
2023-10-10T03:07:53.255Z,8.34
2023-10-10T03:10:25.064Z,8.32
2023-10-10T03:12:53.926Z,8.29
2023-10-10T03:15:22.803Z,8.27
2023-10-10T03:18:11.328Z,8.25
2023-10-10T03:20:39.925Z,8.22
2023-10-10T03:23:14.025Z,8.20
2023-10-10T03:25:52.934Z,8.18
2023-10-10T03:28:27.894Z,8.17
2023-10-10T03:31:07.058Z,8.16
2023-10-10T03:33:44.452Z,8.15
2023-10-10T03:36:24.715Z,8.14
2023-10-10T03:38:53.392Z,8.14
2023-10-10T03:41:24.334Z,8.15
2023-10-10T03:44:16.294Z,8.15
2023-10-10T03:46:58.998Z,8.14
2023-10-10T03:49:49.485Z,8.14
2023-10-10T03:52:36.183Z,8.14
2023-10-10T03:55:22.834Z,8.15
2023-10-10T03:58:29.279Z,8.17
2023-10-10T04:01:15.812Z,8.20
2023-10-10T04:04:02.452Z,8.22
2023-10-10T04:06:48.907Z,8.24
2023-10-10T04:09:35.784Z,8.26
2023-10-10T04:12:21.962Z,8.27
2023-10-10T04:15:08.506Z,8.31
2023-10-10T04:17:54.995Z,8.36
2023-10-10T04:20:41.848Z,8.41
2023-10-10T04:23:28.358Z,8.46
2023-10-10T04:26:20.528Z,8.52
2023-10-10T04:29:07.061Z,8.57
2023-10-10T04:31:54.058Z,8.64
2023-10-10T04:34:40.366Z,8.68
2023-10-10T04:37:26.718Z,8.71
2023-10-10T04:40:13.271Z,8.74
2023-10-10T04:43:10.151Z,8.79
2023-10-10T04:45:56.573Z,8.81
2023-10-10T04:48:42.987Z,8.81
2023-10-10T04:51:29.729Z,8.83
2023-10-10T04:54:16.144Z,8.87
2023-10-10T04:57:03.049Z,8.90
2023-10-10T04:59:49.546Z,8.90
2023-10-10T05:02:36.333Z,8.85
2023-10-10T05:05:23.338Z,8.80
2023-10-10T05:08:10.815Z,8.76
2023-10-10T05:11:00.262Z,8.73
2023-10-10T05:13:46.685Z,8.72
2023-10-10T05:16:33.551Z,8.69
2023-10-10T05:19:20.197Z,8.65
2023-10-10T05:22:06.698Z,8.63
2023-10-10T05:24:44.389Z,8.62
2023-10-10T05:27:12.676Z,8.61
2023-10-10T05:29:40.783Z,8.59
2023-10-10T05:32:09.948Z,8.56
2023-10-10T05:34:38.532Z,8.52
2023-10-10T05:37:08.348Z,8.51
2023-10-10T05:39:38.705Z,8.50
2023-10-10T05:42:10.122Z,8.50
2023-10-10T05:44:40.560Z,8.50
2023-10-10T05:47:08.623Z,8.52
2023-10-10T05:49:38.036Z,8.54
2023-10-10T05:52:08.216Z,8.56
2023-10-10T05:54:37.162Z,8.59
2023-10-10T05:57:07.103Z,8.60
2023-10-10T05:59:35.107Z,8.60
2023-10-10T06:02:03.324Z,8.61
2023-10-10T06:04:31.677Z,8.61
2023-10-10T06:07:00.569Z,8.62
2023-10-10T06:09:35.295Z,8.63
2023-10-10T06:12:06.024Z,8.64
2023-10-10T06:14:33.979Z,8.64
2023-10-10T06:17:01.931Z,8.64
2023-10-10T06:19:30.003Z,8.65
2023-10-10T06:22:03.739Z,8.68
2023-10-10T06:24:35.416Z,8.72
2023-10-10T06:27:03.680Z,8.76
2023-10-10T06:29:31.836Z,8.79
2023-10-10T06:31:59.686Z,8.82
2023-10-10T06:34:36.077Z,8.86
2023-10-10T06:37:09.798Z,8.91
2023-10-10T06:39:55.597Z,8.98
2023-10-10T06:42:31.058Z,9.05
2023-10-10T06:45:09.443Z,9.11
2023-10-10T06:47:48.623Z,9.17
2023-10-10T06:50:18.341Z,9.24
2023-10-10T06:52:46.659Z,9.30
2023-10-10T06:55:22.352Z,9.36
2023-10-10T06:58:00.524Z,9.45
2023-10-10T07:00:30.036Z,9.55
2023-10-10T07:02:58.946Z,9.66
2023-10-10T07:05:35.018Z,9.77
2023-10-10T07:08:20.800Z,9.85
2023-10-10T07:10:49.036Z,9.94
2023-10-10T07:13:20.184Z,10.01
2023-10-10T07:15:55.230Z,10.07
2023-10-10T07:18:26.997Z,10.12
2023-10-10T07:21:30.845Z,10.17
2023-10-10T07:24:06.542Z,10.24
2023-10-10T07:26:42.625Z,10.30
2023-10-10T07:29:43.796Z,10.37
2023-10-10T07:32:17.892Z,10.43
2023-10-10T07:34:52.871Z,10.47
2023-10-10T07:37:20.873Z,10.51
2023-10-10T07:39:58.547Z,10.53
2023-10-10T07:42:31.291Z,10.54
2023-10-10T07:44:59.663Z,10.56
2023-10-10T07:47:28.708Z,10.57
2023-10-10T07:49:57.847Z,10.60
2023-10-10T07:52:25.869Z,10.64
2023-10-10T07:54:55.247Z,10.65
2023-10-10T07:57:30.841Z,10.65
2023-10-10T08:00:00.255Z,10.66
2023-10-10T08:02:31.290Z,10.68
2023-10-10T08:05:02.602Z,10.70
2023-10-10T08:07:30.713Z,10.74
2023-10-10T08:10:17.604Z,10.79
2023-10-10T08:12:45.508Z,10.88
2023-10-10T08:15:26.166Z,10.97
2023-10-10T08:17:56.411Z,11.05
2023-10-10T08:20:44.734Z,11.11
2023-10-10T08:23:12.932Z,11.15
2023-10-10T08:25:41.169Z,11.20
2023-10-10T08:28:09.109Z,11.23
2023-10-10T08:30:37.026Z,11.29
2023-10-10T08:33:05.664Z,11.32
2023-10-10T08:35:40.610Z,11.32
2023-10-10T08:38:08.994Z,11.31
2023-10-10T08:40:37.892Z,11.34
2023-10-10T08:43:08.778Z,11.41
2023-10-10T08:45:45.350Z,11.48
2023-10-10T08:48:14.153Z,11.59
2023-10-10T08:50:43.733Z,11.72
2023-10-10T08:53:12.344Z,11.81
2023-10-10T08:55:41.976Z,11.90
2023-10-10T08:58:11.634Z,12.03
2023-10-10T09:00:40.551Z,12.20
2023-10-10T09:03:09.632Z,12.36
2023-10-10T09:05:38.509Z,12.48
2023-10-10T09:08:16.137Z,12.61
2023-10-10T09:10:44.845Z,12.75
2023-10-10T09:13:12.831Z,12.99
2023-10-10T09:16:14.537Z,13.29
2023-10-10T09:18:43.583Z,13.67
2023-10-10T09:21:19.802Z,13.97
2023-10-10T09:24:07.981Z,14.30
2023-10-10T09:26:37.973Z,14.65
2023-10-10T09:29:17.128Z,14.99
2023-10-10T09:31:47.378Z,15.30
2023-10-10T09:34:23.851Z,15.58
2023-10-10T09:36:57.762Z,15.77
2023-10-10T09:39:39.346Z,15.73
2023-10-10T09:42:24.496Z,15.58
2023-10-10T09:45:15.867Z,15.46
2023-10-10T09:47:57.170Z,15.37
2023-10-10T09:50:36.135Z,15.31
2023-10-10T09:53:07.839Z,15.25
2023-10-10T09:55:35.704Z,15.22
2023-10-10T09:58:06.962Z,15.32
2023-10-10T10:00:39.305Z,15.46
2023-10-10T10:03:30.623Z,15.49
2023-10-10T10:06:23.655Z,15.42
2023-10-10T10:09:10.575Z,15.33
2023-10-10T10:12:05.407Z,15.46
2023-10-10T10:14:48.673Z,15.60
2023-10-10T10:17:24.964Z,15.60
2023-10-10T10:20:05.004Z,15.67
2023-10-10T10:22:33.603Z,15.71
2023-10-10T10:25:26.838Z,16.03
2023-10-10T10:28:16.132Z,16.62
2023-10-10T10:30:52.132Z,17.34
2023-10-10T10:33:20.953Z,17.92
2023-10-10T10:35:52.713Z,18.32
2023-10-10T10:38:24.576Z,18.89
2023-10-10T10:41:06.379Z,19.26
2023-10-10T10:43:42.669Z,19.44
2023-10-10T10:46:29.111Z,19.81
2023-10-10T10:49:07.084Z,20.00
2023-10-10T10:51:43.042Z,20.52
2023-10-10T10:54:31.551Z,21.04
2023-10-10T10:57:04.567Z,21.18
2023-10-10T10:59:40.430Z,21.61
2023-10-10T11:02:27.036Z,21.83
2023-10-10T11:04:55.038Z,21.77
2023-10-10T11:07:42.430Z,21.67
2023-10-10T11:10:11.533Z,21.12
2023-10-10T11:12:39.682Z,20.59
2023-10-10T11:15:17.657Z,20.14
2023-10-10T11:17:53.076Z,19.88
2023-10-10T11:20:49.697Z,19.76
2023-10-10T11:23:18.031Z,20.17
2023-10-10T11:25:48.439Z,20.95
2023-10-10T11:28:25.951Z,21.84
2023-10-10T11:30:59.243Z,22.80
2023-10-10T11:33:47.674Z,23.79
2023-10-10T11:36:39.203Z,24.47
2023-10-10T11:39:33.485Z,24.34
2023-10-10T11:42:05.288Z,23.97
2023-10-10T11:44:34.937Z,24.25
2023-10-10T11:47:09.180Z,24.34
2023-10-10T11:49:37.871Z,24.25
2023-10-10T11:52:16.996Z,24.38
2023-10-10T11:54:46.314Z,24.39
2023-10-10T11:57:16.519Z,24.73
2023-10-10T11:59:48.480Z,25.30
2023-10-10T12:02:18.487Z,25.96
2023-10-10T12:04:46.582Z,26.39
2023-10-10T12:07:16.003Z,26.27
2023-10-10T12:09:46.498Z,25.85
2023-10-10T12:12:16.986Z,25.35
2023-10-10T12:14:45.238Z,25.00
2023-10-10T12:17:15.894Z,24.75
2023-10-10T12:19:45.362Z,24.25
2023-10-10T12:22:14.251Z,23.68
2023-10-10T12:24:43.067Z,23.68
2023-10-10T12:27:11.571Z,24.22
2023-10-10T12:29:41.485Z,24.89
2023-10-10T12:32:17.052Z,25.48
2023-10-10T12:34:47.322Z,26.11
2023-10-10T12:37:18.542Z,26.70
2023-10-10T12:39:47.263Z,27.17
2023-10-10T12:42:15.413Z,27.74
2023-10-10T12:44:49.589Z,28.05
2023-10-10T12:47:19.267Z,28.57
2023-10-10T12:49:47.368Z,29.06
2023-10-10T12:52:18.943Z,29.50
2023-10-10T12:54:48.958Z,29.64
2023-10-10T12:57:17.469Z,29.87
2023-10-10T12:59:48.032Z,30.07
2023-10-10T13:02:17.292Z,30.34
2023-10-10T13:04:49.814Z,30.46
2023-10-10T13:07:17.956Z,30.25
2023-10-10T13:09:48.293Z,30.17
2023-10-10T13:12:28.977Z,29.91
2023-10-10T13:15:17.171Z,29.64
2023-10-10T13:18:13.930Z,29.21
2023-10-10T13:20:42.963Z,28.52
2023-10-10T13:23:10.864Z,27.82
2023-10-10T13:25:39.096Z,27.25
2023-10-10T13:28:11.118Z,26.88
2023-10-10T13:30:41.583Z,26.54
2023-10-10T13:33:09.554Z,26.26
2023-10-10T13:35:38.362Z,26.07
2023-10-10T13:38:07.615Z,25.96
2023-10-10T13:40:39.155Z,25.81
2023-10-10T13:43:09.844Z,25.83
2023-10-10T13:45:39.527Z,26.07
2023-10-10T13:48:14.605Z,26.18
2023-10-10T13:50:43.060Z,26.42
2023-10-10T13:53:13.474Z,26.67
2023-10-10T13:55:42.616Z,26.82
2023-10-10T13:58:13.101Z,26.68
2023-10-10T14:00:43.133Z,26.43
2023-10-10T14:03:15.830Z,26.18
2023-10-10T14:06:02.272Z,26.26
2023-10-10T14:08:31.902Z,26.30
2023-10-10T14:11:00.768Z,26.33
2023-10-10T14:13:29.445Z,26.00
2023-10-10T14:15:58.018Z,25.52
2023-10-10T14:18:31.358Z,24.98
2023-10-10T14:21:08.931Z,24.26
2023-10-10T14:23:37.036Z,23.63
2023-10-10T14:26:14.522Z,23.09
2023-10-10T14:28:43.384Z,22.47
2023-10-10T14:31:14.562Z,22.02
2023-10-10T14:33:42.720Z,21.58
2023-10-10T14:36:12.683Z,21.22
2023-10-10T14:38:46.903Z,20.96
2023-10-10T14:41:18.615Z,20.74
2023-10-10T14:43:55.975Z,20.48
2023-10-10T14:46:25.808Z,20.15
2023-10-10T14:49:02.450Z,19.84
2023-10-10T14:51:35.552Z,19.55
2023-10-10T14:54:08.551Z,19.33
2023-10-10T14:56:37.791Z,19.13
2023-10-10T14:59:07.405Z,18.94
2023-10-10T15:01:36.145Z,18.78
2023-10-10T15:04:07.878Z,18.67
2023-10-10T15:06:36.233Z,18.55
2023-10-10T15:09:04.929Z,18.48
2023-10-10T15:11:34.536Z,18.42
2023-10-10T15:14:07.583Z,18.36
2023-10-10T15:16:37.267Z,18.31
2023-10-10T15:19:07.906Z,18.24
2023-10-10T15:21:37.010Z,18.15
2023-10-10T15:24:06.399Z,18.11
2023-10-10T15:26:36.061Z,18.15
2023-10-10T15:29:05.229Z,18.23
2023-10-10T15:31:33.485Z,18.29
2023-10-10T15:34:01.930Z,18.21
2023-10-10T15:36:33.107Z,18.07
2023-10-10T15:39:11.341Z,17.87
2023-10-10T15:41:42.182Z,17.64
2023-10-10T15:44:14.008Z,17.38
2023-10-10T15:46:44.868Z,17.11
2023-10-10T15:51:47.040Z,16.69
2023-10-10T15:54:16.412Z,16.45
2023-10-10T15:56:48.024Z,16.21
2023-10-10T15:59:16.463Z,15.97
2023-10-10T16:01:48.243Z,15.75
2023-10-10T16:04:18.865Z,15.58
2023-10-10T16:06:51.748Z,15.42
2023-10-10T16:09:31.971Z,15.24
2023-10-10T16:11:59.999Z,15.08
2023-10-10T16:14:28.196Z,14.90
2023-10-10T16:16:56.341Z,14.72
2023-10-10T16:19:27.402Z,14.52
2023-10-10T16:21:56.405Z,14.33
2023-10-10T16:24:29.248Z,14.21
2023-10-10T16:27:00.887Z,14.11
2023-10-10T16:29:35.871Z,14.01
2023-10-10T16:32:19.770Z,13.92
2023-10-10T16:34:48.916Z,13.80
2023-10-10T16:37:20.008Z,13.69
2023-10-10T16:39:48.361Z,13.58
2023-10-10T16:42:25.059Z,13.47
2023-10-10T16:44:55.001Z,13.37
2023-10-10T16:47:23.295Z,13.26
2023-10-10T16:49:51.965Z,13.17
2023-10-10T16:52:27.808Z,13.03
2023-10-10T16:54:58.504Z,12.90
2023-10-10T16:57:26.709Z,12.76
2023-10-10T16:59:57.980Z,12.64
2023-10-10T17:02:30.858Z,12.52
2023-10-10T17:05:02.329Z,12.38
2023-10-10T17:07:30.728Z,12.26
2023-10-10T17:09:58.964Z,12.19
2023-10-10T17:12:27.077Z,12.10
2023-10-10T17:14:55.058Z,12.00
2023-10-10T17:17:26.013Z,11.95
2023-10-10T17:19:54.372Z,11.91
2023-10-10T17:22:24.507Z,11.86
2023-10-10T17:24:54.581Z,11.78
2023-10-10T17:27:22.374Z,11.73
2023-10-10T17:29:52.688Z,11.66
2023-10-10T17:32:22.878Z,11.59
2023-10-10T17:34:50.887Z,11.50
2023-10-10T17:37:18.752Z,11.43
2023-10-10T17:39:49.511Z,11.35
2023-10-10T17:42:17.344Z,11.27
2023-10-10T17:44:46.133Z,11.20
2023-10-10T17:47:17.614Z,11.14
2023-10-10T17:49:46.168Z,11.07
2023-10-10T17:52:14.501Z,11.02
2023-10-10T17:54:44.094Z,10.95
2023-10-10T17:57:14.355Z,10.89
2023-10-10T17:59:42.395Z,10.86
2023-10-10T18:02:10.569Z,10.83
2023-10-10T18:04:43.161Z,10.83
2023-10-10T18:07:11.735Z,10.79
2023-10-10T18:09:40.833Z,10.71
2023-10-10T18:12:13.076Z,10.64
2023-10-10T18:14:41.687Z,10.54
2023-10-10T18:17:12.648Z,10.43
2023-10-10T18:19:42.979Z,10.34
2023-10-10T18:22:11.075Z,10.26
2023-10-10T18:24:39.038Z,10.20
2023-10-10T18:27:07.344Z,10.14
2023-10-10T18:29:41.203Z,10.08
2023-10-10T18:32:13.847Z,10.02
2023-10-10T18:34:43.163Z,9.94
2023-10-10T18:37:17.161Z,9.85
2023-10-10T18:39:54.184Z,9.78
2023-10-10T18:42:22.029Z,9.76
2023-10-10T18:44:49.856Z,9.74
2023-10-10T18:47:19.313Z,9.70
2023-10-10T18:49:48.900Z,9.68
2023-10-10T18:52:20.596Z,9.66
2023-10-10T18:54:53.618Z,9.64
2023-10-10T18:57:23.886Z,9.61
2023-10-10T18:59:51.955Z,9.56
2023-10-10T19:02:23.958Z,9.52
2023-10-10T19:04:54.588Z,9.48
2023-10-10T19:07:25.199Z,9.46
2023-10-10T19:09:53.075Z,9.39
2023-10-10T19:12:21.934Z,9.32
2023-10-10T19:14:49.757Z,9.27
2023-10-10T19:17:20.414Z,9.21
2023-10-10T19:19:49.129Z,9.14
2023-10-10T19:22:17.178Z,9.08
2023-10-10T19:24:45.033Z,9.01
2023-10-10T19:27:13.794Z,8.99
2023-10-10T19:29:42.829Z,8.96
2023-10-10T19:32:11.006Z,8.92
2023-10-10T19:34:39.266Z,8.89
2023-10-10T19:37:10.416Z,8.83
2023-10-10T19:39:38.356Z,8.76
2023-10-10T19:42:07.744Z,8.68
2023-10-10T19:44:35.865Z,8.62
2023-10-10T19:47:08.499Z,8.56
2023-10-10T19:49:36.825Z,8.50
2023-10-10T19:52:06.535Z,8.48
2023-10-10T19:54:36.272Z,8.45
2023-10-10T19:57:04.252Z,8.42
2023-10-10T19:59:32.325Z,8.38
2023-10-10T20:02:00.487Z,8.34
2023-10-10T20:04:28.632Z,8.32
2023-10-10T20:06:56.914Z,8.31
2023-10-10T20:09:24.878Z,8.30
2023-10-10T20:11:52.991Z,8.27
2023-10-10T20:14:21.122Z,8.23
2023-10-10T20:16:51.143Z,8.18
2023-10-10T20:19:20.851Z,8.15
2023-10-10T20:21:49.235Z,8.15
2023-10-10T20:24:17.169Z,8.14
2023-10-10T20:26:45.197Z,8.12
2023-10-10T20:29:13.107Z,8.10
2023-10-10T20:31:41.098Z,8.07
2023-10-10T20:34:09.161Z,8.03
2023-10-10T20:36:38.091Z,8.00
2023-10-10T20:39:07.752Z,8.01
2023-10-10T20:41:35.848Z,8.02
2023-10-10T20:44:04.108Z,7.99
2023-10-10T20:46:32.906Z,7.95
2023-10-10T20:49:01.927Z,7.91
2023-10-10T20:51:29.793Z,7.88
2023-10-10T20:53:58.137Z,7.86
2023-10-10T20:56:26.180Z,7.85
2023-10-10T20:58:54.503Z,7.86
2023-10-10T21:01:25.209Z,7.87
2023-10-10T21:03:53.213Z,7.89
2023-10-10T21:06:21.892Z,7.91
2023-10-10T21:08:50.625Z,7.91
2023-10-10T21:11:18.851Z,7.89
2023-10-10T21:13:48.163Z,7.90
2023-10-10T21:16:16.480Z,7.92
2023-10-10T21:18:46.241Z,7.94
2023-10-10T21:21:15.690Z,7.95
2023-10-10T21:23:44.402Z,7.98
2023-10-10T21:26:15.108Z,8.00
2023-10-10T21:28:44.421Z,8.02
2023-10-10T21:31:13.120Z,8.01
2023-10-10T21:33:42.770Z,8.00
2023-10-10T21:36:14.317Z,7.99
2023-10-10T21:38:43.618Z,7.98
2023-10-10T21:41:12.766Z,7.96
2023-10-10T21:43:41.023Z,7.94
2023-10-10T21:46:09.138Z,7.92
2023-10-10T21:48:37.549Z,7.90
2023-10-10T21:51:08.265Z,7.89
2023-10-10T21:53:37.957Z,7.88
2023-10-10T21:56:07.022Z,7.89
2023-10-10T21:58:35.670Z,7.92
2023-10-10T22:01:04.778Z,7.93
2023-10-10T22:03:33.589Z,7.94
2023-10-10T22:06:01.741Z,7.95
2023-10-10T22:08:31.534Z,7.96
2023-10-10T22:11:03.442Z,7.97
2023-10-10T22:13:31.617Z,7.99
2023-10-10T22:15:59.681Z,8.00
2023-10-10T22:18:31.407Z,8.01
2023-10-10T22:21:00.754Z,8.02
2023-10-10T22:23:29.185Z,8.05
2023-10-10T22:26:00.227Z,8.08
2023-10-10T22:28:36.393Z,8.12
2023-10-10T22:31:12.063Z,8.11
2023-10-10T22:33:40.220Z,8.13
2023-10-10T22:36:15.762Z,8.14
2023-10-10T22:38:46.539Z,8.15
2023-10-10T22:41:15.648Z,8.14
2023-10-10T22:43:45.603Z,8.13
2023-10-10T22:46:14.442Z,8.13
2023-10-10T22:48:44.533Z,8.13
2023-10-10T22:51:14.543Z,8.13
2023-10-10T22:53:43.662Z,8.12
2023-10-10T22:56:13.091Z,8.12
2023-10-10T22:58:44.033Z,8.11
2023-10-10T23:01:16.310Z,8.12
2023-10-10T23:03:46.975Z,8.13
2023-10-10T23:06:15.067Z,8.16
2023-10-10T23:08:43.470Z,8.16
2023-10-10T23:11:14.710Z,8.17
2023-10-10T23:13:43.468Z,8.17
2023-10-10T23:16:16.986Z,8.17
2023-10-10T23:18:46.925Z,8.19
2023-10-10T23:21:15.091Z,8.23
2023-10-10T23:23:43.159Z,8.25
2023-10-10T23:26:11.351Z,8.28
2023-10-10T23:28:39.465Z,8.29
2023-10-10T23:31:08.332Z,8.29
2023-10-10T23:33:36.729Z,8.31
2023-10-10T23:36:07.954Z,8.31
2023-10-10T23:38:36.243Z,8.32
2023-10-10T23:41:05.693Z,8.34
2023-10-10T23:43:38.403Z,8.34
2023-10-10T23:46:07.794Z,8.37
2023-10-10T23:48:37.240Z,8.41
2023-10-10T23:51:08.599Z,8.43
2023-10-10T23:53:38.034Z,8.40
2023-10-10T23:56:06.905Z,8.38
2023-10-10T23:58:36.442Z,8.36
